Terminal Aerodrome Forecast
Issued by NWS Cleveland, OH

Home | Current Version | Previous Version | Text Only | Print | Product List | Glossary On
Versions: 1 2 3 4 5 6 7 8 9 10 11 12 13 14 15 16 17 18
000
FTUS41 KCLE 302333
TAFCAK
TAF
KCAK 302333Z 0100/0124 09012KT P6SM OVC012
     FM010200 10010KT P6SM VCSH BKN015 OVC035
      TEMPO 0103/0107 5SM -SHRA BKN025
     FM010700 14005KT 4SM BR OVC012
      TEMPO 0108/0112 OVC008
     FM011500 17007KT P6SM BKN025
     FM011800 19008KT P6SM BKN040=

USA.gov is the U.S. government's official web portal to all federal, state and local government web resources and services.